sensor_id;sensor_type;location;lat;lon;timestamp;pressure;altitude;pressure_sealevel;temperature;humidity
35848;BME280;22332;51.954;20.118;2023-09-07T00:02:57;101139.55;;;13.66;75.04
35848;BME280;22332;51.954;20.118;2023-09-07T00:06:04;101139.86;;;13.65;74.96
35848;BME280;22332;51.954;20.118;2023-09-07T00:09:09;101146.30;;;13.63;75.03
35848;BME280;22332;51.954;20.118;2023-09-07T00:12:16;101143.11;;;13.60;74.90
35848;BME280;22332;51.954;20.118;2023-09-07T00:15:22;101144.64;;;13.55;75.17
35848;BME280;22332;51.954;20.118;2023-09-07T00:18:27;101143.63;;;13.49;75.10
35848;BME280;22332;51.954;20.118;2023-09-07T00:21:33;101140.71;;;13.46;75.35
35848;BME280;22332;51.954;20.118;2023-09-07T00:24:39;101139.98;;;13.46;75.31
35848;BME280;22332;51.954;20.118;2023-09-07T00:27:44;101137.84;;;13.46;75.17
35848;BME280;22332;51.954;20.118;2023-09-07T00:30:50;101139.67;;;13.49;75.13
35848;BME280;22332;51.954;20.118;2023-09-07T00:33:55;101144.00;;;13.49;75.16
35848;BME280;22332;51.954;20.118;2023-09-07T00:37:01;101142.69;;;13.49;75.13
35848;BME280;22332;51.954;20.118;2023-09-07T00:40:09;101142.48;;;13.48;75.15
35848;BME280;22332;51.954;20.118;2023-09-07T00:43:14;101141.75;;;13.42;74.95
35848;BME280;22332;51.954;20.118;2023-09-07T00:46:20;101138.38;;;13.38;75.16
35848;BME280;22332;51.954;20.118;2023-09-07T00:49:27;101139.12;;;13.32;75.12
35848;BME280;22332;51.954;20.118;2023-09-07T00:52:34;101140.61;;;13.30;75.20
35848;BME280;22332;51.954;20.118;2023-09-07T00:55:40;101145.17;;;13.29;75.13
35848;BME280;22332;51.954;20.118;2023-09-07T00:58:46;101146.73;;;13.29;75.33
35848;BME280;22332;51.954;20.118;2023-09-07T01:01:51;101152.23;;;13.28;75.32
35848;BME280;22332;51.954;20.118;2023-09-07T01:04:57;101152.81;;;13.13;75.63
35848;BME280;22332;51.954;20.118;2023-09-07T01:08:09;101153.00;;;13.07;75.65
35848;BME280;22332;51.954;20.118;2023-09-07T01:11:16;101150.04;;;13.08;75.54
35848;BME280;22332;51.954;20.118;2023-09-07T01:14:22;101149.20;;;13.08;75.70
35848;BME280;22332;51.954;20.118;2023-09-07T01:17:27;101149.85;;;13.04;75.68
35848;BME280;22332;51.954;20.118;2023-09-07T01:20:35;101146.73;;;13.03;75.67
35848;BME280;22332;51.954;20.118;2023-09-07T01:23:42;101151.52;;;13.04;75.70
35848;BME280;22332;51.954;20.118;2023-09-07T01:26:49;101146.77;;;13.03;75.79
35848;BME280;22332;51.954;20.118;2023-09-07T01:29:56;101147.38;;;13.00;75.53
35848;BME280;22332;51.954;20.118;2023-09-07T01:33:03;101146.30;;;12.96;75.70
35848;BME280;22332;51.954;20.118;2023-09-07T01:36:09;101145.05;;;12.96;75.84
35848;BME280;22332;51.954;20.118;2023-09-07T01:39:14;101144.73;;;12.94;75.94
35848;BME280;22332;51.954;20.118;2023-09-07T01:42:21;101146.63;;;12.93;75.84
35848;BME280;22332;51.954;20.118;2023-09-07T01:45:27;101141.92;;;12.90;75.70
35848;BME280;22332;51.954;20.118;2023-09-07T01:48:32;101150.17;;;12.86;75.88
35848;BME280;22332;51.954;20.118;2023-09-07T01:51:39;101152.91;;;12.83;75.98
35848;BME280;22332;51.954;20.118;2023-09-07T01:54:44;101147.96;;;12.83;76.06
35848;BME280;22332;51.954;20.118;2023-09-07T01:57:50;101150.66;;;12.85;75.91
35848;BME280;22332;51.954;20.118;2023-09-07T02:00:59;101150.39;;;12.84;76.02
35848;BME280;22332;51.954;20.118;2023-09-07T02:04:05;101146.68;;;12.85;75.94
35848;BME280;22332;51.954;20.118;2023-09-07T02:07:11;101149.03;;;12.83;75.90
35848;BME280;22332;51.954;20.118;2023-09-07T02:10:18;101147.56;;;12.82;75.97
35848;BME280;22332;51.954;20.118;2023-09-07T02:13:24;101153.05;;;12.78;75.94
35848;BME280;22332;51.954;20.118;2023-09-07T02:16:29;101155.73;;;12.74;75.89
35848;BME280;22332;51.954;20.118;2023-09-07T02:19:35;101154.56;;;12.70;76.06
35848;BME280;22332;51.954;20.118;2023-09-07T02:22:40;101157.47;;;12.63;76.26
35848;BME280;22332;51.954;20.118;2023-09-07T02:25:46;101156.15;;;12.62;76.25
35848;BME280;22332;51.954;20.118;2023-09-07T02:28:52;101153.27;;;12.63;76.17
35848;BME280;22332;51.954;20.118;2023-09-07T02:31:58;101157.31;;;12.65;76.31
35848;BME280;22332;51.954;20.118;2023-09-07T02:35:04;101158.01;;;12.65;76.18
35848;BME280;22332;51.954;20.118;2023-09-07T02:38:10;101156.49;;;12.64;76.16
35848;BME280;22332;51.954;20.118;2023-09-07T02:41:17;101156.84;;;12.61;76.31
35848;BME280;22332;51.954;20.118;2023-09-07T02:44:23;101153.06;;;12.57;76.25
35848;BME280;22332;51.954;20.118;2023-09-07T02:47:29;101158.19;;;12.50;76.16
35848;BME280;22332;51.954;20.118;2023-09-07T02:50:35;101153.01;;;12.46;76.12
35848;BME280;22332;51.954;20.118;2023-09-07T02:53:41;101156.39;;;12.44;76.22
35848;BME280;22332;51.954;20.118;2023-09-07T02:56:47;101156.41;;;12.46;76.24
35848;BME280;22332;51.954;20.118;2023-09-07T02:59:54;101160.90;;;12.48;76.12
35848;BME280;22332;51.954;20.118;2023-09-07T03:03:00;101160.30;;;12.48;76.10
35848;BME280;22332;51.954;20.118;2023-09-07T03:06:11;101158.78;;;12.47;75.95
35848;BME280;22332;51.954;20.118;2023-09-07T03:09:16;101159.10;;;12.46;76.17
35848;BME280;22332;51.954;20.118;2023-09-07T03:12:22;101158.89;;;12.44;76.14
35848;BME280;22332;51.954;20.118;2023-09-07T03:15:30;101155.42;;;12.43;76.24
35848;BME280;22332;51.954;20.118;2023-09-07T03:18:36;101154.29;;;12.40;76.02
35848;BME280;22332;51.954;20.118;2023-09-07T03:21:42;101152.11;;;12.29;75.71
35848;BME280;22332;51.954;20.118;2023-09-07T03:24:50;101153.65;;;12.20;76.20
35848;BME280;22332;51.954;20.118;2023-09-07T03:27:56;101152.66;;;12.19;76.57
35848;BME280;22332;51.954;20.118;2023-09-07T03:31:02;101156.65;;;12.20;76.29
35848;BME280;22332;51.954;20.118;2023-09-07T03:34:09;101157.13;;;12.21;76.28
35848;BME280;22332;51.954;20.118;2023-09-07T03:37:15;101162.89;;;12.23;76.39
35848;BME280;22332;51.954;20.118;2023-09-07T03:40:20;101165.77;;;12.22;76.48
35848;BME280;22332;51.954;20.118;2023-09-07T03:43:26;101165.90;;;12.21;76.33
35848;BME280;22332;51.954;20.118;2023-09-07T03:46:32;101163.31;;;12.20;76.12
35848;BME280;22332;51.954;20.118;2023-09-07T03:49:37;101165.40;;;12.14;75.97
35848;BME280;22332;51.954;20.118;2023-09-07T03:52:43;101163.84;;;12.12;76.41
35848;BME280;22332;51.954;20.118;2023-09-07T03:55:49;101164.58;;;12.08;76.45
35848;BME280;22332;51.954;20.118;2023-09-07T03:58:55;101163.51;;;12.06;76.72
35848;BME280;22332;51.954;20.118;2023-09-07T04:02:01;101162.95;;;12.08;76.50
35848;BME280;22332;51.954;20.118;2023-09-07T04:05:07;101166.34;;;12.10;76.45
35848;BME280;22332;51.954;20.118;2023-09-07T04:08:14;101169.48;;;12.11;76.48
35848;BME280;22332;51.954;20.118;2023-09-07T04:11:20;101170.99;;;12.14;76.51
35848;BME280;22332;51.954;20.118;2023-09-07T04:14:25;101172.52;;;12.16;76.50
35848;BME280;22332;51.954;20.118;2023-09-07T04:17:32;101176.32;;;12.18;76.32
35848;BME280;22332;51.954;20.118;2023-09-07T04:20:45;101171.47;;;12.20;76.49
35848;BME280;22332;51.954;20.118;2023-09-07T04:23:50;101175.55;;;12.21;76.25
35848;BME280;22332;51.954;20.118;2023-09-07T04:26:59;101173.59;;;12.21;76.57
35848;BME280;22332;51.954;20.118;2023-09-07T04:30:08;101172.80;;;12.21;76.85
35848;BME280;22332;51.954;20.118;2023-09-07T04:33:14;101176.46;;;12.26;76.78
35848;BME280;22332;51.954;20.118;2023-09-07T04:36:20;101180.23;;;12.35;76.84
35848;BME280;22332;51.954;20.118;2023-09-07T04:39:26;101182.16;;;12.47;76.86
35848;BME280;22332;51.954;20.118;2023-09-07T04:42:31;101181.30;;;12.60;76.68
35848;BME280;22332;51.954;20.118;2023-09-07T04:45:44;101185.64;;;12.75;76.88
35848;BME280;22332;51.954;20.118;2023-09-07T04:48:50;101185.70;;;12.88;76.90
35848;BME280;22332;51.954;20.118;2023-09-07T04:51:56;101185.97;;;13.00;76.54
35848;BME280;22332;51.954;20.118;2023-09-07T04:55:03;101187.17;;;13.10;76.85
35848;BME280;22332;51.954;20.118;2023-09-07T04:58:10;101185.77;;;13.21;76.74
35848;BME280;22332;51.954;20.118;2023-09-07T05:01:16;101188.62;;;13.34;77.00
35848;BME280;22332;51.954;20.118;2023-09-07T05:04:22;101187.54;;;13.49;77.10
35848;BME280;22332;51.954;20.118;2023-09-07T05:07:29;101190.95;;;13.65;77.03
35848;BME280;22332;51.954;20.118;2023-09-07T05:10:35;101192.02;;;13.82;76.81
35848;BME280;22332;51.954;20.118;2023-09-07T05:13:41;101189.86;;;13.93;76.94
35848;BME280;22332;51.954;20.118;2023-09-07T05:16:47;101190.44;;;14.07;77.04
35848;BME280;22332;51.954;20.118;2023-09-07T05:19:53;101193.74;;;14.19;77.04
35848;BME280;22332;51.954;20.118;2023-09-07T05:22:58;101192.30;;;14.28;77.17
35848;BME280;22332;51.954;20.118;2023-09-07T05:26:05;101192.86;;;14.33;77.28
35848;BME280;22332;51.954;20.118;2023-09-07T05:29:12;101194.88;;;14.38;77.29
35848;BME280;22332;51.954;20.118;2023-09-07T05:32:19;101194.10;;;14.44;77.54
35848;BME280;22332;51.954;20.118;2023-09-07T05:35:24;101199.77;;;14.55;77.85
35848;BME280;22332;51.954;20.118;2023-09-07T05:38:33;101200.73;;;14.69;77.90
35848;BME280;22332;51.954;20.118;2023-09-07T05:41:39;101203.13;;;14.80;77.95
35848;BME280;22332;51.954;20.118;2023-09-07T05:44:45;101200.10;;;14.91;78.16
35848;BME280;22332;51.954;20.118;2023-09-07T05:47:50;101206.71;;;15.00;78.35
35848;BME280;22332;51.954;20.118;2023-09-07T05:50:56;101207.53;;;15.07;78.50
35848;BME280;22332;51.954;20.118;2023-09-07T05:54:02;101209.90;;;15.16;78.73
35848;BME280;22332;51.954;20.118;2023-09-07T05:57:08;101213.57;;;15.25;78.92
35848;BME280;22332;51.954;20.118;2023-09-07T06:00:14;101211.45;;;15.37;79.25
35848;BME280;22332;51.954;20.118;2023-09-07T06:03:21;101215.27;;;15.50;79.58
35848;BME280;22332;51.954;20.118;2023-09-07T06:06:28;101216.15;;;15.62;79.87
35848;BME280;22332;51.954;20.118;2023-09-07T06:09:34;101217.16;;;15.75;80.06
35848;BME280;22332;51.954;20.118;2023-09-07T06:12:41;101217.41;;;15.88;80.22
35848;BME280;22332;51.954;20.118;2023-09-07T06:15:47;101215.39;;;16.00;80.14
35848;BME280;22332;51.954;20.118;2023-09-07T06:18:52;101221.13;;;16.13;80.56
35848;BME280;22332;51.954;20.118;2023-09-07T06:21:58;101218.05;;;16.30;80.80
35848;BME280;22332;51.954;20.118;2023-09-07T06:25:04;101221.90;;;16.46;80.91
35848;BME280;22332;51.954;20.118;2023-09-07T06:28:10;101224.42;;;16.61;81.05
35848;BME280;22332;51.954;20.118;2023-09-07T06:31:16;101225.56;;;16.75;81.12
35848;BME280;22332;51.954;20.118;2023-09-07T06:34:21;101228.62;;;16.90;81.10
35848;BME280;22332;51.954;20.118;2023-09-07T06:37:27;101228.25;;;17.03;81.00
35848;BME280;22332;51.954;20.118;2023-09-07T06:40:33;101237.29;;;17.20;81.36
35848;BME280;22332;51.954;20.118;2023-09-07T06:43:39;101229.95;;;17.37;81.25
35848;BME280;22332;51.954;20.118;2023-09-07T06:46:47;101227.98;;;17.53;81.53
35848;BME280;22332;51.954;20.118;2023-09-07T06:49:55;101227.83;;;17.70;81.58
35848;BME280;22332;51.954;20.118;2023-09-07T06:53:01;101227.66;;;17.84;81.62
35848;BME280;22332;51.954;20.118;2023-09-07T06:56:07;101231.55;;;18.01;81.58
35848;BME280;22332;51.954;20.118;2023-09-07T06:59:13;101232.02;;;18.20;81.53
35848;BME280;22332;51.954;20.118;2023-09-07T07:02:19;101230.27;;;18.38;81.57
35848;BME280;22332;51.954;20.118;2023-09-07T07:05:25;101229.92;;;18.52;81.34
35848;BME280;22332;51.954;20.118;2023-09-07T07:08:33;101230.64;;;18.64;80.81
35848;BME280;22332;51.954;20.118;2023-09-07T07:11:39;101229.23;;;18.71;80.62
35848;BME280;22332;51.954;20.118;2023-09-07T07:14:45;101231.70;;;18.79;80.43
35848;BME280;22332;51.954;20.118;2023-09-07T07:17:51;101237.27;;;18.89;80.26
35848;BME280;22332;51.954;20.118;2023-09-07T07:20:57;101240.56;;;19.03;80.43
35848;BME280;22332;51.954;20.118;2023-09-07T07:24:04;101239.89;;;19.18;80.22
35848;BME280;22332;51.954;20.118;2023-09-07T07:27:11;101239.77;;;19.31;80.04
35848;BME280;22332;51.954;20.118;2023-09-07T07:30:17;101242.67;;;19.44;79.52
35848;BME280;22332;51.954;20.118;2023-09-07T07:33:23;101240.81;;;19.56;78.57
35848;BME280;22332;51.954;20.118;2023-09-07T07:36:31;101237.98;;;19.66;77.49
35848;BME280;22332;51.954;20.118;2023-09-07T07:39:37;101239.33;;;19.73;77.43
35848;BME280;22332;51.954;20.118;2023-09-07T07:42:44;101240.59;;;19.85;77.72
35848;BME280;22332;51.954;20.118;2023-09-07T07:45:53;101240.89;;;19.93;77.20
35848;BME280;22332;51.954;20.118;2023-09-07T07:49:00;101244.90;;;20.01;77.14
35848;BME280;22332;51.954;20.118;2023-09-07T07:52:07;101248.08;;;20.09;77.05
35848;BME280;22332;51.954;20.118;2023-09-07T07:55:13;101251.53;;;20.16;76.62
35848;BME280;22332;51.954;20.118;2023-09-07T07:58:19;101255.22;;;20.26;76.47
35848;BME280;22332;51.954;20.118;2023-09-07T08:01:25;101253.69;;;20.35;76.03
35848;BME280;22332;51.954;20.118;2023-09-07T08:04:31;101252.48;;;20.46;75.69
35848;BME280;22332;51.954;20.118;2023-09-07T08:07:39;101251.07;;;20.57;75.86
35848;BME280;22332;51.954;20.118;2023-09-07T08:10:46;101248.59;;;20.62;75.32
35848;BME280;22332;51.954;20.118;2023-09-07T08:13:51;101246.16;;;20.65;75.27
35848;BME280;22332;51.954;20.118;2023-09-07T08:16:57;101247.54;;;20.70;75.10
35848;BME280;22332;51.954;20.118;2023-09-07T08:20:04;101245.17;;;20.77;74.90
35848;BME280;22332;51.954;20.118;2023-09-07T08:23:12;101244.08;;;20.81;74.65
35848;BME280;22332;51.954;20.118;2023-09-07T08:26:19;101245.23;;;20.89;74.22
35848;BME280;22332;51.954;20.118;2023-09-07T08:29:26;101246.61;;;20.97;74.14
35848;BME280;22332;51.954;20.118;2023-09-07T08:32:31;101248.91;;;21.01;73.97
35848;BME280;22332;51.954;20.118;2023-09-07T08:35:37;101245.59;;;21.06;73.91
35848;BME280;22332;51.954;20.118;2023-09-07T08:38:48;101246.53;;;21.15;73.95
35848;BME280;22332;51.954;20.118;2023-09-07T08:41:57;101244.30;;;21.26;73.72
35848;BME280;22332;51.954;20.118;2023-09-07T08:45:07;101242.41;;;21.32;71.93
35848;BME280;22332;51.954;20.118;2023-09-07T08:48:14;101246.16;;;21.42;72.05
35848;BME280;22332;51.954;20.118;2023-09-07T08:51:22;101246.21;;;21.55;71.41
35848;BME280;22332;51.954;20.118;2023-09-07T08:54:27;101246.77;;;21.67;71.55
35848;BME280;22332;51.954;20.118;2023-09-07T08:57:33;101245.91;;;21.76;70.39
35848;BME280;22332;51.954;20.118;2023-09-07T09:00:39;101244.51;;;21.88;69.37
35848;BME280;22332;51.954;20.118;2023-09-07T09:03:48;101244.00;;;22.00;69.11
35848;BME280;22332;51.954;20.118;2023-09-07T09:06:53;101241.42;;;22.09;69.80
35848;BME280;22332;51.954;20.118;2023-09-07T09:10:07;101246.59;;;22.13;70.08
35848;BME280;22332;51.954;20.118;2023-09-07T09:13:13;101244.04;;;22.13;69.86
35848;BME280;22332;51.954;20.118;2023-09-07T09:16:19;101239.79;;;22.15;69.80
35848;BME280;22332;51.954;20.118;2023-09-07T09:19:32;101240.94;;;22.25;67.94
35848;BME280;22332;51.954;20.118;2023-09-07T09:22:38;101239.88;;;22.35;67.04
35848;BME280;22332;51.954;20.118;2023-09-07T09:25:44;101238.61;;;22.46;68.85
35848;BME280;22332;51.954;20.118;2023-09-07T09:28:50;101240.95;;;22.53;67.95
35848;BME280;22332;51.954;20.118;2023-09-07T09:31:56;101242.93;;;22.61;67.26
35848;BME280;22332;51.954;20.118;2023-09-07T09:35:03;101240.88;;;22.64;68.04
35848;BME280;22332;51.954;20.118;2023-09-07T09:38:12;101241.59;;;22.68;67.72
35848;BME280;22332;51.954;20.118;2023-09-07T09:41:18;101244.30;;;22.74;66.78
35848;BME280;22332;51.954;20.118;2023-09-07T09:44:25;101237.19;;;22.78;67.10
35848;BME280;22332;51.954;20.118;2023-09-07T09:47:34;101233.83;;;22.80;67.17
35848;BME280;22332;51.954;20.118;2023-09-07T09:50:44;101236.80;;;22.82;67.09
35848;BME280;22332;51.954;20.118;2023-09-07T09:53:54;101231.95;;;22.86;67.00
35848;BME280;22332;51.954;20.118;2023-09-07T09:57:00;101232.36;;;22.92;66.77
35848;BME280;22332;51.954;20.118;2023-09-07T10:00:07;101231.31;;;23.00;66.49
35848;BME280;22332;51.954;20.118;2023-09-07T10:03:26;101231.91;;;23.09;65.73
35848;BME280;22332;51.954;20.118;2023-09-07T10:06:34;101227.29;;;23.17;66.18
35848;BME280;22332;51.954;20.118;2023-09-07T10:09:40;101225.05;;;23.26;66.28
35848;BME280;22332;51.954;20.118;2023-09-07T10:12:50;101224.38;;;23.24;65.93
35848;BME280;22332;51.954;20.118;2023-09-07T10:16:02;101225.10;;;23.20;65.79
35848;BME280;22332;51.954;20.118;2023-09-07T10:19:19;101223.31;;;23.17;65.64
35848;BME280;22332;51.954;20.118;2023-09-07T10:22:25;101223.58;;;23.26;63.93
35848;BME280;22332;51.954;20.118;2023-09-07T10:25:37;101224.54;;;23.42;64.80
35848;BME280;22332;51.954;20.118;2023-09-07T10:28:44;101225.23;;;23.61;64.30
35848;BME280;22332;51.954;20.118;2023-09-07T10:31:53;101219.91;;;23.82;64.72
35848;BME280;22332;51.954;20.118;2023-09-07T10:35:00;101215.92;;;24.00;64.17
35848;BME280;22332;51.954;20.118;2023-09-07T10:38:07;101222.96;;;24.14;63.64
35848;BME280;22332;51.954;20.118;2023-09-07T10:41:13;101218.15;;;24.26;63.24
35848;BME280;22332;51.954;20.118;2023-09-07T10:44:26;101213.68;;;24.40;63.28
35848;BME280;22332;51.954;20.118;2023-09-07T10:47:35;101216.98;;;24.56;62.23
35848;BME280;22332;51.954;20.118;2023-09-07T10:50:50;101214.60;;;24.70;61.34
35848;BME280;22332;51.954;20.118;2023-09-07T10:53:57;101215.94;;;24.88;62.18
35848;BME280;22332;51.954;20.118;2023-09-07T10:57:11;101213.48;;;24.95;61.04
35848;BME280;22332;51.954;20.118;2023-09-07T11:00:17;101209.00;;;24.94;61.65
35848;BME280;22332;51.954;20.118;2023-09-07T11:03:23;101204.48;;;24.99;61.02
35848;BME280;22332;51.954;20.118;2023-09-07T11:06:30;101205.34;;;25.03;60.72
35848;BME280;22332;51.954;20.118;2023-09-07T11:09:41;101203.96;;;25.06;59.42
35848;BME280;22332;51.954;20.118;2023-09-07T11:12:46;101205.21;;;24.96;59.07
35848;BME280;22332;51.954;20.118;2023-09-07T11:15:55;101206.19;;;24.85;59.19
35848;BME280;22332;51.954;20.118;2023-09-07T11:19:05;101203.85;;;24.80;59.90
35848;BME280;22332;51.954;20.118;2023-09-07T11:22:12;101205.25;;;24.74;59.04
35848;BME280;22332;51.954;20.118;2023-09-07T11:25:18;101208.41;;;24.64;57.47
35848;BME280;22332;51.954;20.118;2023-09-07T11:28:24;101206.86;;;24.57;59.05
35848;BME280;22332;51.954;20.118;2023-09-07T11:31:30;101207.55;;;24.61;59.29
35848;BME280;22332;51.954;20.118;2023-09-07T11:34:46;101204.21;;;24.77;59.29
35848;BME280;22332;51.954;20.118;2023-09-07T11:37:55;101206.96;;;24.92;59.05
35848;BME280;22332;51.954;20.118;2023-09-07T11:41:00;101208.58;;;25.02;58.79
35848;BME280;22332;51.954;20.118;2023-09-07T11:44:06;101208.15;;;24.92;58.62
35848;BME280;22332;51.954;20.118;2023-09-07T11:47:12;101207.90;;;24.79;58.05
35848;BME280;22332;51.954;20.118;2023-09-07T11:50:19;101204.92;;;24.63;57.58
35848;BME280;22332;51.954;20.118;2023-09-07T11:53:25;101202.01;;;24.47;58.60
35848;BME280;22332;51.954;20.118;2023-09-07T11:56:30;101201.22;;;24.34;58.25
35848;BME280;22332;51.954;20.118;2023-09-07T11:59:36;101201.40;;;24.23;58.47
35848;BME280;22332;51.954;20.118;2023-09-07T12:02:42;101196.34;;;24.19;58.33
35848;BME280;22332;51.954;20.118;2023-09-07T12:05:47;101195.06;;;24.28;58.72
35848;BME280;22332;51.954;20.118;2023-09-07T12:09:03;101193.48;;;24.43;58.60
35848;BME280;22332;51.954;20.118;2023-09-07T12:12:11;101190.95;;;24.50;57.78
35848;BME280;22332;51.954;20.118;2023-09-07T12:15:16;101185.44;;;24.59;57.70
35848;BME280;22332;51.954;20.118;2023-09-07T12:18:22;101189.14;;;24.62;55.93
35848;BME280;22332;51.954;20.118;2023-09-07T12:21:29;101182.53;;;24.65;56.96
35848;BME280;22332;51.954;20.118;2023-09-07T12:24:34;101185.70;;;24.67;56.69
35848;BME280;22332;51.954;20.118;2023-09-07T12:27:40;101185.69;;;24.64;56.93
35848;BME280;22332;51.954;20.118;2023-09-07T12:30:46;101184.77;;;24.62;56.42
35848;BME280;22332;51.954;20.118;2023-09-07T12:33:53;101182.60;;;24.61;56.16
35848;BME280;22332;51.954;20.118;2023-09-07T12:36:58;101184.41;;;24.50;56.38
35848;BME280;22332;51.954;20.118;2023-09-07T12:40:05;101180.16;;;24.39;56.35
35848;BME280;22332;51.954;20.118;2023-09-07T12:43:14;101174.48;;;24.39;56.57
35848;BME280;22332;51.954;20.118;2023-09-07T12:46:19;101173.76;;;24.46;55.47
35848;BME280;22332;51.954;20.118;2023-09-07T12:49:25;101168.02;;;24.59;56.59
35848;BME280;22332;51.954;20.118;2023-09-07T12:52:31;101167.23;;;24.70;56.63
35848;BME280;22332;51.954;20.118;2023-09-07T12:55:38;101155.99;;;24.78;56.65
35848;BME280;22332;51.954;20.118;2023-09-07T12:58:44;101157.19;;;24.86;56.58
35848;BME280;22332;51.954;20.118;2023-09-07T13:01:50;101157.17;;;24.90;55.89
35848;BME280;22332;51.954;20.118;2023-09-07T13:04:58;101151.48;;;24.92;56.05
35848;BME280;22332;51.954;20.118;2023-09-07T13:08:04;101146.02;;;24.97;55.87
35848;BME280;22332;51.954;20.118;2023-09-07T13:11:10;101140.23;;;25.05;56.36
35848;BME280;22332;51.954;20.118;2023-09-07T13:14:16;101142.20;;;25.15;55.93
35848;BME280;22332;51.954;20.118;2023-09-07T13:17:22;101141.84;;;25.21;55.83
35848;BME280;22332;51.954;20.118;2023-09-07T13:20:29;101138.78;;;25.28;55.44
35848;BME280;22332;51.954;20.118;2023-09-07T13:23:38;101133.95;;;25.36;55.74
35848;BME280;22332;51.954;20.118;2023-09-07T13:26:47;101135.04;;;25.42;55.54
35848;BME280;22332;51.954;20.118;2023-09-07T13:29:56;101136.48;;;25.55;55.29
35848;BME280;22332;51.954;20.118;2023-09-07T13:33:03;101132.96;;;25.62;54.71
35848;BME280;22332;51.954;20.118;2023-09-07T13:36:08;101131.85;;;25.66;54.61
35848;BME280;22332;51.954;20.118;2023-09-07T13:39:18;101128.66;;;25.69;54.40
35848;BME280;22332;51.954;20.118;2023-09-07T13:42:26;101127.76;;;25.68;54.48
35848;BME280;22332;51.954;20.118;2023-09-07T13:45:34;101129.14;;;25.64;54.13
35848;BME280;22332;51.954;20.118;2023-09-07T13:48:39;101128.34;;;25.50;53.93
35848;BME280;22332;51.954;20.118;2023-09-07T13:51:45;101129.37;;;25.31;54.08
35848;BME280;22332;51.954;20.118;2023-09-07T13:54:51;101127.07;;;25.18;54.04
35848;BME280;22332;51.954;20.118;2023-09-07T13:57:56;101127.91;;;25.14;54.01
35848;BME280;22332;51.954;20.118;2023-09-07T14:01:02;101123.50;;;25.12;54.21
35848;BME280;22332;51.954;20.118;2023-09-07T14:04:08;101123.13;;;25.09;53.84
35848;BME280;22332;51.954;20.118;2023-09-07T14:07:14;101119.25;;;25.05;53.25
35848;BME280;22332;51.954;20.118;2023-09-07T14:10:19;101118.45;;;25.05;53.32
35848;BME280;22332;51.954;20.118;2023-09-07T14:13:25;101118.79;;;25.08;53.26
35848;BME280;22332;51.954;20.118;2023-09-07T14:16:30;101119.14;;;25.11;52.82
35848;BME280;22332;51.954;20.118;2023-09-07T14:19:36;101117.11;;;25.14;53.15
35848;BME280;22332;51.954;20.118;2023-09-07T14:22:42;101110.02;;;25.22;53.24
35848;BME280;22332;51.954;20.118;2023-09-07T14:25:47;101109.64;;;25.31;53.18
35848;BME280;22332;51.954;20.118;2023-09-07T14:28:53;101105.69;;;25.40;52.92
35848;BME280;22332;51.954;20.118;2023-09-07T14:31:59;101101.75;;;25.45;52.93
35848;BME280;22332;51.954;20.118;2023-09-07T14:35:06;101100.45;;;25.50;53.21
35848;BME280;22332;51.954;20.118;2023-09-07T14:38:13;101102.21;;;25.53;52.91
35848;BME280;22332;51.954;20.118;2023-09-07T14:41:19;101098.83;;;25.53;52.88
35848;BME280;22332;51.954;20.118;2023-09-07T14:44:26;101102.09;;;25.52;53.21
35848;BME280;22332;51.954;20.118;2023-09-07T14:47:31;101102.00;;;25.45;52.80
35848;BME280;22332;51.954;20.118;2023-09-07T14:50:37;101100.80;;;25.35;52.80
35848;BME280;22332;51.954;20.118;2023-09-07T14:53:43;101100.45;;;25.20;52.84
35848;BME280;22332;51.954;20.118;2023-09-07T14:56:49;101100.73;;;25.03;52.71
35848;BME280;22332;51.954;20.118;2023-09-07T14:59:55;101100.85;;;24.90;52.80
35848;BME280;22332;51.954;20.118;2023-09-07T15:03:01;101097.45;;;24.75;52.86
35848;BME280;22332;51.954;20.118;2023-09-07T15:06:06;101090.94;;;24.60;52.78
35848;BME280;22332;51.954;20.118;2023-09-07T15:09:16;101093.03;;;24.45;52.96
35848;BME280;22332;51.954;20.118;2023-09-07T15:12:22;101092.50;;;24.33;53.13
35848;BME280;22332;51.954;20.118;2023-09-07T15:15:28;101092.48;;;24.21;53.33
35848;BME280;22332;51.954;20.118;2023-09-07T15:18:37;101095.18;;;24.10;53.38
35848;BME280;22332;51.954;20.118;2023-09-07T15:21:43;101092.94;;;24.02;53.49
35848;BME280;22332;51.954;20.118;2023-09-07T15:24:49;101090.73;;;23.95;53.81
35848;BME280;22332;51.954;20.118;2023-09-07T15:27:54;101088.14;;;23.87;53.99
35848;BME280;22332;51.954;20.118;2023-09-07T15:31:00;101088.16;;;23.80;54.01
35848;BME280;22332;51.954;20.118;2023-09-07T15:34:07;101092.11;;;23.74;54.57
35848;BME280;22332;51.954;20.118;2023-09-07T15:37:12;101091.48;;;23.68;54.51
35848;BME280;22332;51.954;20.118;2023-09-07T15:40:18;101086.48;;;23.62;54.76
35848;BME280;22332;51.954;20.118;2023-09-07T15:43:24;101087.91;;;23.56;54.90
35848;BME280;22332;51.954;20.118;2023-09-07T15:46:30;101084.73;;;23.52;54.87
35848;BME280;22332;51.954;20.118;2023-09-07T15:49:36;101084.04;;;23.49;54.57
35848;BME280;22332;51.954;20.118;2023-09-07T15:52:48;101083.53;;;23.48;54.67
35848;BME280;22332;51.954;20.118;2023-09-07T15:55:55;101082.92;;;23.46;54.66
35848;BME280;22332;51.954;20.118;2023-09-07T15:59:03;101082.77;;;23.45;54.63
35848;BME280;22332;51.954;20.118;2023-09-07T16:02:08;101077.59;;;23.42;54.62
35848;BME280;22332;51.954;20.118;2023-09-07T16:05:14;101079.00;;;23.38;54.78